createdAt,value
2023-05-14T00:02:36.345Z,30.10
2023-05-14T00:05:19.317Z,26.20
2023-05-14T00:10:45.059Z,26.50
2023-05-14T00:18:54.551Z,25.20
2023-05-14T00:21:37.260Z,23.60
2023-05-14T00:27:03.788Z,25.40
2023-05-14T00:29:46.569Z,28.20
2023-05-14T00:35:12.225Z,28.80
2023-05-14T00:40:37.994Z,31.00
2023-05-14T00:46:04.558Z,33.80
2023-05-14T00:48:48.082Z,29.90
2023-05-14T00:51:31.408Z,32.70
2023-05-14T00:54:17.965Z,29.30
2023-05-14T00:57:01.343Z,27.90
2023-05-14T00:59:44.348Z,26.60
2023-05-14T01:05:10.069Z,33.60
2023-05-14T01:10:52.189Z,31.10
2023-05-14T01:14:00.275Z,30.20
2023-05-14T01:16:45.655Z,26.70
2023-05-14T01:19:44.071Z,28.70
2023-05-14T01:22:27.741Z,27.70
2023-05-14T01:25:10.718Z,29.20
2023-05-14T01:28:06.569Z,27.60
2023-05-14T01:31:06.885Z,24.60
2023-05-14T01:33:50.206Z,27.00
2023-05-14T01:36:33.935Z,27.00
2023-05-14T01:39:17.749Z,27.80
2023-05-14T01:42:01.411Z,28.70
2023-05-14T01:44:44.312Z,25.10
2023-05-14T01:47:27.141Z,24.30
2023-05-14T01:50:11.110Z,28.70
2023-05-14T01:52:56.586Z,26.80
2023-05-14T01:55:39.771Z,27.70
2023-05-14T02:01:05.577Z,22.40
2023-05-14T02:03:49.346Z,26.30
2023-05-14T02:06:32.356Z,23.70
2023-05-14T02:09:15.186Z,26.80
2023-05-14T02:14:40.873Z,27.10
2023-05-14T02:17:26.227Z,26.40
2023-05-14T02:20:10.550Z,24.70
2023-05-14T02:22:53.401Z,24.10
2023-05-14T02:25:36.749Z,23.30
2023-05-14T02:28:19.570Z,26.70
2023-05-14T02:33:45.904Z,31.50
2023-05-14T02:36:28.726Z,27.70
2023-05-14T02:41:54.233Z,29.80
2023-05-14T02:47:20.339Z,27.70
2023-05-14T02:50:06.136Z,27.00
2023-05-14T02:52:48.980Z,26.90
2023-05-14T02:55:32.018Z,25.70
2023-05-14T03:00:57.939Z,22.60
2023-05-14T03:03:41.344Z,27.80
2023-05-14T03:06:24.701Z,30.70
2023-05-14T03:11:50.932Z,33.00
2023-05-14T03:14:33.746Z,32.90
2023-05-14T03:19:59.396Z,32.70
2023-05-14T03:22:44.130Z,33.40
2023-05-14T03:25:27.321Z,31.70
2023-05-14T03:28:11.296Z,31.20
2023-05-14T03:30:54.161Z,34.40
2023-05-14T03:33:37.330Z,29.10
2023-05-14T03:36:20.332Z,27.00
2023-05-14T03:39:03.906Z,30.30
2023-05-14T03:41:47.457Z,30.50
2023-05-14T03:44:30.370Z,33.80
2023-05-14T03:52:40.529Z,106.80
2023-05-14T03:55:24.327Z,34.40
2023-05-14T03:58:13.606Z,30.50
2023-05-14T04:00:57.630Z,28.80
2023-05-14T04:03:41.737Z,29.20
2023-05-14T04:06:24.818Z,27.40
2023-05-14T04:11:51.732Z,25.90
2023-05-14T04:14:34.656Z,25.60
2023-05-14T04:17:17.674Z,25.80
2023-05-14T04:20:00.487Z,24.90
2023-05-14T04:22:43.347Z,27.20
2023-05-14T04:25:26.096Z,26.80
2023-05-14T04:30:51.909Z,27.20
2023-05-14T04:33:35.472Z,30.00
2023-05-14T04:36:18.596Z,27.20
2023-05-14T04:39:01.394Z,25.60
2023-05-14T04:41:44.315Z,23.50
2023-05-14T04:44:27.081Z,24.70
2023-05-14T04:47:09.913Z,23.00
2023-05-14T04:49:52.952Z,27.10
2023-05-14T04:52:35.991Z,24.30
2023-05-14T04:55:18.818Z,25.50
2023-05-14T04:58:01.634Z,21.60
2023-05-14T05:00:44.648Z,23.50
2023-05-14T05:03:27.452Z,17.20
2023-05-14T05:06:11.472Z,24.60
2023-05-14T05:08:55.510Z,21.70
2023-05-14T05:11:38.922Z,19.20
2023-05-14T05:14:22.139Z,20.80
2023-05-14T05:17:05.204Z,20.70
2023-05-14T05:19:48.228Z,20.50
2023-05-14T05:22:31.728Z,25.30
2023-05-14T05:25:14.620Z,21.60
2023-05-14T05:27:57.715Z,20.40
2023-05-14T05:30:41.228Z,18.80
2023-05-14T05:33:24.175Z,20.00
2023-05-14T05:36:07.324Z,22.30
2023-05-14T05:38:52.691Z,19.70
2023-05-14T05:41:35.484Z,21.90
2023-05-14T05:44:18.628Z,23.00
2023-05-14T05:47:01.450Z,23.10
2023-05-14T05:49:44.457Z,21.20
2023-05-14T05:52:27.334Z,22.30
2023-05-14T05:55:10.397Z,25.10
2023-05-14T05:57:53.971Z,23.10
2023-05-14T06:00:36.969Z,24.40
2023-05-14T06:03:19.839Z,21.60
2023-05-14T06:06:02.986Z,18.50
2023-05-14T06:08:45.738Z,20.40
2023-05-14T06:11:28.597Z,23.90
2023-05-14T06:14:11.513Z,23.40
2023-05-14T06:16:54.600Z,17.70
2023-05-14T06:19:37.550Z,20.70
2023-05-14T06:22:20.752Z,21.30
2023-05-14T06:25:04.484Z,20.30
2023-05-14T06:27:47.309Z,22.20
2023-05-14T06:30:30.820Z,18.90
2023-05-14T06:33:15.113Z,18.90
2023-05-14T06:36:03.530Z,19.10
2023-05-14T06:38:46.352Z,21.40
2023-05-14T06:41:29.730Z,20.60
2023-05-14T06:44:12.645Z,18.60
2023-05-14T06:46:55.565Z,20.30
2023-05-14T06:49:39.143Z,22.40
2023-05-14T06:52:21.954Z,20.90
2023-05-14T06:55:05.380Z,23.00
2023-05-14T06:57:48.276Z,22.00
2023-05-14T07:00:31.510Z,23.00
2023-05-14T07:03:14.317Z,20.90
2023-05-14T07:05:57.132Z,20.40
2023-05-14T07:08:40.348Z,17.70
2023-05-14T07:11:23.195Z,19.50
2023-05-14T07:14:05.938Z,18.10
2023-05-14T07:16:48.785Z,16.40
2023-05-14T07:19:31.667Z,19.10
2023-05-14T07:22:14.442Z,21.70
2023-05-14T07:24:57.333Z,17.50
2023-05-14T07:27:40.255Z,17.80
2023-05-14T07:30:23.583Z,18.50
2023-05-14T07:33:07.162Z,18.50
2023-05-14T07:35:50.749Z,17.00
2023-05-14T07:38:33.876Z,16.70
2023-05-14T07:41:16.770Z,19.80
2023-05-14T07:43:59.531Z,20.90
2023-05-14T07:46:42.791Z,22.30
2023-05-14T07:49:25.719Z,21.00
2023-05-14T07:52:08.484Z,17.00
2023-05-14T07:54:52.120Z,17.10
2023-05-14T07:57:34.870Z,20.60
2023-05-14T08:00:18.179Z,17.20
2023-05-14T08:03:01.255Z,15.10
2023-05-14T08:05:44.892Z,15.40
2023-05-14T08:08:27.939Z,15.70
2023-05-14T08:11:11.108Z,17.20
2023-05-14T08:13:53.980Z,20.40
2023-05-14T08:16:36.873Z,10.90
2023-05-14T08:19:19.893Z,11.50
2023-05-14T08:22:03.811Z,11.00
2023-05-14T08:24:46.775Z,13.50
2023-05-14T08:27:29.585Z,13.40
2023-05-14T08:30:13.029Z,8.90
2023-05-14T08:32:56.020Z,7.80
2023-05-14T08:35:38.817Z,6.20
2023-05-14T08:38:22.266Z,7.70
2023-05-14T08:41:06.838Z,6.50
2023-05-14T08:44:00.318Z,6.80
2023-05-14T08:46:43.267Z,8.80
2023-05-14T08:49:32.163Z,6.90
2023-05-14T08:52:17.861Z,8.30
2023-05-14T08:55:04.187Z,5.10
2023-05-14T08:57:47.065Z,7.00
2023-05-14T09:00:30.920Z,16.50
2023-05-14T09:03:15.109Z,9.90
2023-05-14T09:06:00.094Z,9.00
2023-05-14T09:08:44.354Z,6.60
2023-05-14T09:11:27.269Z,6.80
2023-05-14T09:14:10.514Z,7.10
2023-05-14T09:16:54.802Z,9.10
2023-05-14T09:19:40.312Z,14.20
2023-05-14T09:22:23.143Z,8.50
2023-05-14T09:25:09.645Z,9.00
2023-05-14T09:27:56.148Z,15.50
2023-05-14T09:30:40.364Z,6.50
2023-05-14T09:33:28.408Z,6.70
2023-05-14T09:36:11.607Z,8.30
2023-05-14T09:38:58.275Z,6.50
2023-05-14T09:41:41.641Z,8.90
2023-05-14T09:44:25.271Z,9.90
2023-05-14T09:47:08.156Z,10.40
2023-05-14T09:49:51.074Z,9.70
2023-05-14T09:52:34.784Z,8.60
2023-05-14T09:55:18.380Z,34.40
2023-05-14T09:58:01.252Z,15.30
2023-05-14T10:00:45.856Z,7.20
2023-05-14T10:03:30.700Z,9.50
2023-05-14T10:06:16.519Z,23.00
2023-05-14T10:09:12.199Z,15.70
2023-05-14T10:12:01.273Z,16.10
2023-05-14T10:14:49.876Z,14.10
2023-05-14T10:17:36.359Z,7.30
2023-05-14T10:20:20.755Z,6.60
2023-05-14T10:23:03.642Z,7.10
2023-05-14T10:25:46.650Z,12.70
2023-05-14T10:28:30.682Z,10.50
2023-05-14T10:31:13.869Z,11.30
2023-05-14T10:33:58.003Z,4.70
2023-05-14T10:36:43.086Z,6.70
2023-05-14T10:39:41.416Z,8.40
2023-05-14T10:42:24.168Z,11.20
2023-05-14T10:45:10.948Z,6.30
2023-05-14T10:47:54.243Z,13.40
2023-05-14T10:50:37.150Z,11.20
2023-05-14T10:53:21.177Z,13.90
2023-05-14T10:56:09.126Z,7.70
2023-05-14T10:58:52.036Z,12.20
2023-05-14T11:01:35.009Z,10.20
2023-05-14T11:04:24.921Z,11.50
2023-05-14T11:07:08.108Z,12.20
2023-05-14T11:09:51.886Z,9.50
2023-05-14T11:12:36.670Z,6.90
2023-05-14T11:15:21.994Z,7.00
2023-05-14T11:18:05.285Z,8.30
2023-05-14T11:20:48.553Z,9.10
2023-05-14T11:23:31.388Z,10.10
2023-05-14T11:26:14.256Z,10.40
2023-05-14T11:28:57.119Z,7.60
2023-05-14T11:31:40.765Z,12.80
2023-05-14T11:34:23.723Z,9.60
2023-05-14T11:37:08.096Z,10.20
2023-05-14T11:39:55.836Z,10.10
2023-05-14T11:42:39.472Z,8.10
2023-05-14T11:45:27.249Z,11.20
2023-05-14T11:48:15.091Z,11.10
2023-05-14T11:50:58.350Z,8.30
2023-05-14T11:53:41.230Z,23.70
2023-05-14T11:56:24.153Z,10.60
2023-05-14T11:59:07.151Z,5.80
2023-05-14T12:01:50.760Z,9.80
2023-05-14T12:04:33.851Z,9.80
2023-05-14T12:07:16.978Z,11.50
2023-05-14T12:10:01.942Z,7.40
2023-05-14T12:12:47.380Z,4.70
2023-05-14T12:15:31.430Z,12.90
2023-05-14T12:18:24.069Z,10.80
2023-05-14T12:21:08.549Z,6.00
2023-05-14T12:23:59.386Z,13.00
2023-05-14T12:26:46.981Z,7.40
2023-05-14T12:29:29.793Z,9.00
2023-05-14T12:32:12.832Z,7.10
2023-05-14T12:34:55.642Z,10.20
2023-05-14T12:37:40.216Z,13.80
2023-05-14T12:40:23.208Z,7.60
2023-05-14T12:43:06.568Z,8.70
2023-05-14T12:45:49.362Z,10.90
2023-05-14T12:48:32.197Z,12.40
2023-05-14T12:51:15.897Z,9.80
2023-05-14T12:53:58.829Z,18.20
2023-05-14T12:56:41.954Z,10.40
2023-05-14T12:59:24.710Z,9.70
2023-05-14T13:02:07.845Z,12.80
2023-05-14T13:04:50.687Z,10.40
2023-05-14T13:07:33.468Z,8.50
2023-05-14T13:10:18.499Z,17.20
2023-05-14T13:13:02.641Z,10.90
2023-05-14T13:15:46.842Z,6.10
2023-05-14T13:18:29.651Z,10.50
2023-05-14T13:21:12.948Z,8.60
2023-05-14T13:23:55.889Z,6.10
2023-05-14T13:26:38.926Z,11.00
2023-05-14T13:29:21.752Z,7.20
2023-05-14T13:32:05.274Z,8.10
2023-05-14T13:34:48.101Z,10.90
2023-05-14T13:37:30.886Z,8.80
2023-05-14T13:40:13.685Z,6.80
2023-05-14T13:42:56.539Z,9.70
2023-05-14T13:45:39.262Z,13.20
2023-05-14T13:48:23.272Z,6.90
2023-05-14T13:51:06.109Z,5.30
2023-05-14T13:53:50.306Z,8.30
2023-05-14T13:56:33.066Z,6.90
2023-05-14T13:59:15.956Z,6.70
2023-05-14T14:01:58.685Z,10.20
2023-05-14T14:04:41.485Z,11.50
2023-05-14T14:07:24.312Z,11.60
2023-05-14T14:10:08.248Z,7.90
2023-05-14T14:12:52.066Z,9.60
2023-05-14T14:15:35.661Z,9.90
2023-05-14T14:18:18.519Z,16.90
2023-05-14T14:21:02.081Z,7.00
2023-05-14T14:23:48.477Z,10.90
2023-05-14T14:26:31.351Z,7.40
2023-05-14T14:29:14.550Z,9.90
2023-05-14T14:31:57.738Z,5.20
2023-05-14T14:34:41.334Z,5.60
2023-05-14T14:37:24.150Z,5.60
2023-05-14T14:40:09.792Z,10.50
2023-05-14T14:42:52.725Z,20.50
2023-05-14T14:45:35.771Z,4.90
2023-05-14T14:48:37.805Z,8.70
2023-05-14T14:51:21.097Z,5.90
2023-05-14T14:54:05.273Z,8.00
2023-05-14T14:56:49.297Z,13.70
2023-05-14T14:59:32.312Z,7.00
2023-05-14T15:02:15.696Z,40.50
2023-05-14T15:04:58.638Z,16.00
2023-05-14T15:07:41.484Z,9.30
2023-05-14T15:10:24.309Z,12.20
2023-05-14T15:13:08.088Z,9.00
2023-05-14T15:15:52.740Z,7.80
2023-05-14T15:18:35.782Z,11.40
2023-05-14T15:21:18.761Z,9.50
2023-05-14T15:24:04.548Z,6.10
2023-05-14T15:26:47.350Z,7.10
2023-05-14T15:29:30.155Z,6.00
2023-05-14T15:32:12.970Z,5.90
2023-05-14T15:34:55.974Z,5.80
2023-05-14T15:37:44.357Z,5.90
2023-05-14T15:40:27.635Z,6.30
2023-05-14T15:43:10.703Z,7.90
2023-05-14T15:45:53.503Z,2.90
2023-05-14T15:48:36.364Z,5.00
2023-05-14T15:51:19.407Z,15.00
2023-05-14T15:54:03.915Z,10.60
2023-05-14T15:56:47.636Z,8.00
2023-05-14T15:59:30.565Z,10.20
2023-05-14T16:02:14.555Z,2.90
2023-05-14T16:04:57.431Z,7.30
2023-05-14T16:07:40.926Z,7.00
2023-05-14T16:10:23.917Z,3.00
2023-05-14T16:13:06.921Z,7.50
2023-05-14T16:15:49.713Z,6.20
2023-05-14T16:18:33.562Z,5.20
2023-05-14T16:21:16.538Z,6.20
2023-05-14T16:23:59.347Z,8.00
2023-05-14T16:26:42.619Z,7.60
2023-05-14T16:29:25.511Z,8.90
2023-05-14T16:32:08.389Z,5.00
2023-05-14T16:34:51.327Z,7.50
2023-05-14T16:37:34.350Z,11.00
2023-05-14T16:40:19.661Z,4.10
2023-05-14T16:43:02.624Z,6.60
2023-05-14T16:45:45.457Z,16.00
2023-05-14T16:48:28.368Z,9.90
2023-05-14T16:51:11.446Z,13.10
2023-05-14T16:53:55.593Z,9.00
2023-05-14T16:56:38.753Z,11.40
2023-05-14T16:59:22.383Z,8.50
2023-05-14T17:02:06.819Z,7.00
2023-05-14T17:04:49.771Z,5.70
2023-05-14T17:07:32.786Z,5.00
2023-05-14T17:10:15.746Z,7.70
2023-05-14T17:12:59.285Z,8.30
2023-05-14T17:16:01.149Z,4.40
2023-05-14T17:18:45.862Z,7.10
2023-05-14T17:21:28.736Z,5.30
2023-05-14T17:24:11.494Z,7.50
2023-05-14T17:26:54.354Z,5.40
2023-05-14T17:29:37.771Z,4.80
2023-05-14T17:32:20.840Z,5.70
2023-05-14T17:35:03.862Z,2.90
2023-05-14T17:37:46.719Z,7.00
2023-05-14T17:40:29.720Z,4.90
2023-05-14T17:43:12.959Z,13.40
2023-05-14T17:45:55.774Z,9.00
2023-05-14T17:48:38.786Z,6.70
2023-05-14T17:51:21.920Z,7.00
2023-05-14T17:54:04.906Z,10.10
2023-05-14T17:56:50.922Z,9.40
2023-05-14T17:59:33.958Z,9.20
2023-05-14T18:02:17.172Z,8.50
2023-05-14T18:05:00.546Z,19.40
2023-05-14T18:07:43.460Z,21.10
2023-05-14T18:10:26.527Z,26.50
2023-05-14T18:13:09.529Z,12.90
2023-05-14T18:15:54.290Z,6.80
2023-05-14T18:18:37.193Z,5.00
2023-05-14T18:21:20.001Z,7.00
2023-05-14T18:24:03.345Z,11.90
2023-05-14T18:26:46.219Z,8.60
2023-05-14T18:29:29.013Z,9.60
2023-05-14T18:32:11.757Z,9.90
2023-05-14T18:34:54.574Z,4.60
2023-05-14T18:37:38.650Z,2.70
2023-05-14T18:40:21.447Z,8.20
2023-05-14T18:43:04.218Z,4.90
2023-05-14T18:45:48.285Z,4.50
2023-05-14T18:48:31.598Z,4.90
2023-05-14T18:51:14.410Z,4.10
2023-05-14T18:53:57.475Z,6.60
2023-05-14T18:56:46.822Z,4.60
2023-05-14T18:59:30.495Z,8.20
2023-05-14T19:02:13.321Z,10.60
2023-05-14T19:04:56.914Z,8.00
2023-05-14T19:07:41.154Z,10.40
2023-05-14T19:10:23.890Z,13.50
2023-05-14T19:13:06.733Z,8.20
2023-05-14T19:15:49.610Z,13.30
2023-05-14T19:18:32.595Z,12.60
2023-05-14T19:21:15.624Z,17.50
2023-05-14T19:23:58.561Z,15.00
2023-05-14T19:26:42.081Z,13.60
2023-05-14T19:29:25.187Z,31.50
2023-05-14T19:32:08.070Z,26.40
2023-05-14T19:34:51.615Z,25.30
2023-05-14T19:37:35.162Z,38.50
2023-05-14T19:40:17.993Z,27.30
2023-05-14T19:43:00.786Z,16.50
2023-05-14T19:45:43.554Z,12.30
2023-05-14T19:48:26.546Z,18.70
2023-05-14T19:51:09.428Z,16.80
2023-05-14T19:53:52.211Z,16.10
2023-05-14T19:56:35.580Z,21.00
2023-05-14T19:59:18.484Z,23.40
2023-05-14T20:02:01.309Z,23.60
2023-05-14T20:04:46.132Z,29.50
2023-05-14T20:07:29.641Z,20.90
2023-05-14T20:10:14.546Z,28.40
2023-05-14T20:12:57.465Z,25.30
2023-05-14T20:15:41.141Z,22.50
2023-05-14T20:18:24.840Z,25.00
2023-05-14T20:21:07.963Z,25.80
2023-05-14T20:23:50.863Z,29.20
2023-05-14T20:26:33.961Z,26.90
2023-05-14T20:29:17.045Z,12.00
2023-05-14T20:32:00.391Z,21.70
2023-05-14T20:34:43.437Z,13.90
2023-05-14T20:37:26.212Z,12.20
2023-05-14T20:40:13.098Z,17.10
2023-05-14T20:42:56.531Z,23.80
2023-05-14T20:45:39.823Z,14.70
2023-05-14T20:48:22.625Z,16.20
2023-05-14T20:51:06.674Z,21.10
2023-05-14T20:53:49.479Z,16.20
2023-05-14T20:56:32.910Z,19.90
2023-05-14T20:59:15.754Z,14.70
2023-05-14T21:01:58.941Z,18.60
2023-05-14T21:04:41.878Z,17.50
2023-05-14T21:07:25.422Z,16.80
2023-05-14T21:10:10.063Z,19.10
2023-05-14T21:12:52.940Z,17.30
2023-05-14T21:15:37.050Z,14.80
2023-05-14T21:18:19.776Z,17.40
2023-05-14T21:21:02.596Z,19.80
2023-05-14T21:23:45.775Z,18.70
2023-05-14T21:26:32.502Z,19.30
2023-05-14T21:29:15.455Z,19.00
2023-05-14T21:31:58.396Z,16.70
2023-05-14T21:34:41.291Z,14.90
2023-05-14T21:37:24.102Z,17.40
2023-05-14T21:40:12.503Z,18.30
2023-05-14T21:42:55.870Z,15.30
2023-05-14T21:45:39.335Z,15.30
2023-05-14T21:48:22.906Z,12.60
2023-05-14T21:51:07.204Z,15.00
2023-05-14T21:53:50.043Z,15.70
2023-05-14T21:56:34.965Z,11.60
2023-05-14T21:59:17.776Z,12.80
2023-05-14T22:04:46.977Z,16.90
2023-05-14T22:07:29.788Z,13.80
2023-05-14T22:10:14.329Z,9.60
2023-05-14T22:12:57.150Z,13.30
2023-05-14T22:15:40.957Z,12.10
2023-05-14T22:18:24.289Z,15.50
2023-05-14T22:21:07.115Z,13.30
2023-05-14T22:23:50.428Z,11.10
2023-05-14T22:26:33.491Z,16.60
2023-05-14T22:29:16.389Z,13.90
2023-05-14T22:31:59.141Z,10.60
2023-05-14T22:34:42.162Z,11.80
2023-05-14T22:37:24.992Z,9.50
2023-05-14T22:40:08.954Z,13.10
2023-05-14T22:42:51.734Z,23.20
2023-05-14T22:45:34.579Z,12.00
2023-05-14T22:48:18.034Z,10.30
2023-05-14T22:51:00.922Z,8.80
2023-05-14T22:53:43.821Z,10.10
2023-05-14T22:56:26.602Z,7.40
2023-05-14T22:59:09.319Z,11.10
2023-05-14T23:01:52.130Z,13.50
2023-05-14T23:04:35.504Z,9.70
2023-05-14T23:07:18.460Z,11.60
2023-05-14T23:10:02.058Z,10.10
2023-05-14T23:12:44.887Z,13.20
2023-05-14T23:15:27.741Z,9.70
2023-05-14T23:18:11.036Z,8.40
2023-05-14T23:20:53.972Z,9.30
2023-05-14T23:23:36.734Z,10.80
2023-05-14T23:26:19.538Z,9.70
2023-05-14T23:29:02.352Z,5.40
2023-05-14T23:31:45.198Z,11.60
2023-05-14T23:34:28.110Z,8.20
2023-05-14T23:37:10.963Z,6.20
2023-05-14T23:39:53.831Z,10.20
2023-05-14T23:42:36.717Z,5.90
2023-05-14T23:45:19.460Z,6.40
2023-05-14T23:48:02.773Z,8.80
2023-05-14T23:50:46.100Z,7.60
2023-05-14T23:53:28.989Z,10.20
2023-05-14T23:56:11.783Z,10.10
2023-05-14T23:58:55.331Z,9.80
